AAL2026 KMIA-KJFK
Flight info
| Callsign | AAL2026 |
|---|---|
| Flight time | 2h 7m |
| Altitude | 37000 |
| Route | ALTNN2 DUCEN Q87 OVENP/N0481F390 Q87 JROSS JOHAR Q109 DFENC SAWED Q108 SIE CAMRN4 |
| Aircraft | B77W/H-SDE1E2E3FGHIJ2J3J4J5M1RWXY/LB1D1 |
Departure
| Time | 2026-05-03 20:22 |
|---|---|
| Airport | Miami International Airport (KMIA) |
Arrival
| Time | 2026-05-03 22:30 |
|---|---|
| Airport | John F. Kennedy International Airport (KJFK) |
| Time | Latitude | Longitude | Altitude | Speed | Heading |
|---|---|---|---|---|---|
| 2026-05-03 20:15 | 25.79942 | -80.27528 | 25 ft | 0 kts | 266° |
| 2026-05-03 20:16 | 25.79940 | -80.27555 | 24 ft | 8 kts | 268° |
| 2026-05-03 20:16 | 25.79936 | -80.27647 | 21 ft | 17 kts | 267° |
| 2026-05-03 20:16 | 25.79935 | -80.27790 | 21 ft | 18 kts | 275° |
| 2026-05-03 20:17 | 25.79982 | -80.27884 | 20 ft | 12 kts | 322° |
| 2026-05-03 20:17 | 25.80046 | -80.27945 | 19 ft | 12 kts | 298° |
| 2026-05-03 20:17 | 25.80049 | -80.28028 | 19 ft | 13 kts | 265° |
| 2026-05-03 20:17 | 25.80043 | -80.28126 | 19 ft | 13 kts | 267° |
| 2026-05-03 20:18 | 25.80039 | -80.28223 | 20 ft | 13 kts | 268° |
| 2026-05-03 20:18 | 25.80035 | -80.28320 | 20 ft | 13 kts | 267° |
| 2026-05-03 20:18 | 25.80031 | -80.28417 | 20 ft | 13 kts | 267° |
| 2026-05-03 20:18 | 25.80027 | -80.28534 | 20 ft | 18 kts | 268° |
| 2026-05-03 20:19 | 25.80021 | -80.28689 | 25 ft | 22 kts | 266° |
| 2026-05-03 20:19 | 25.80012 | -80.28878 | 24 ft | 27 kts | 267° |
| 2026-05-03 20:19 | 25.80003 | -80.29108 | 22 ft | 31 kts | 267° |
| 2026-05-03 20:19 | 25.79994 | -80.29339 | 20 ft | 26 kts | 267° |
| 2026-05-03 20:20 | 25.79985 | -80.29544 | 19 ft | 26 kts | 267° |
| 2026-05-03 20:20 | 25.79978 | -80.29690 | 19 ft | 16 kts | 267° |
| 2026-05-03 20:20 | 25.79974 | -80.29815 | 19 ft | 16 kts | 268° |
| 2026-05-03 20:20 | 25.79970 | -80.29912 | 18 ft | 9 kts | 269° |
| 2026-05-03 20:21 | 25.79973 | -80.29935 | 18 ft | 9 kts | 276° |
| 2026-05-03 20:21 | 25.80000 | -80.30057 | 18 ft | 19 kts | 286° |
| 2026-05-03 20:21 | 25.80043 | -80.30105 | 19 ft | 6 kts | 15° |
| 2026-05-03 20:21 | 25.80071 | -80.30057 | 18 ft | 9 kts | 77° |
| 2026-05-03 20:22 | 25.80079 | -80.29944 | 18 ft | 29 kts | 86° |
| 2026-05-03 20:22 | 25.80101 | -80.29446 | 20 ft | 121 kts | 87° |
| 2026-05-03 20:22 | 25.80140 | -80.28602 | 57 ft | 199 kts | 84° |
| 2026-05-03 20:22 | 25.80237 | -80.26415 | 1338 ft | 211 kts | 88° |
| 2026-05-03 20:23 | 25.80262 | -80.24773 | 2171 ft | 214 kts | 89° |
| 2026-05-03 20:23 | 25.80260 | -80.23099 | 2825 ft | 223 kts | 90° |
| 2026-05-03 20:23 | 25.80262 | -80.21901 | 3182 ft | 235 kts | 90° |
| 2026-05-03 20:23 | 25.80283 | -80.20038 | 3766 ft | 247 kts | 89° |
| 2026-05-03 20:24 | 25.80553 | -80.18084 | 4103 ft | 270 kts | 63° |
| 2026-05-03 20:24 | 25.81793 | -80.16514 | 4735 ft | 278 kts | 30° |
| 2026-05-03 20:24 | 25.83615 | -80.15867 | 5533 ft | 277 kts | 0° |
| 2026-05-03 20:24 | 25.85557 | -80.15806 | 6403 ft | 283 kts | 357° |
| 2026-05-03 20:25 | 25.87516 | -80.15761 | 6866 ft | 285 kts | 357° |
| 2026-05-03 20:25 | 25.89516 | -80.15764 | 6976 ft | 283 kts | 349° |
| 2026-05-03 20:25 | 25.91395 | -80.16272 | 6950 ft | 284 kts | 338° |
| 2026-05-03 20:25 | 25.93250 | -80.16974 | 6939 ft | 275 kts | 336° |
| 2026-05-03 20:26 | 25.95062 | -80.17653 | 6971 ft | 276 kts | 337° |
| 2026-05-03 20:26 | 25.96905 | -80.18320 | 6967 ft | 278 kts | 338° |
| 2026-05-03 20:26 | 25.98753 | -80.18971 | 6954 ft | 277 kts | 340° |
| 2026-05-03 20:26 | 26.00667 | -80.19360 | 7007 ft | 283 kts | 350° |
| 2026-05-03 20:27 | 26.02642 | -80.19541 | 7564 ft | 288 kts | 352° |
| 2026-05-03 20:27 | 26.04655 | -80.19699 | 8528 ft | 288 kts | 351° |
| 2026-05-03 20:27 | 26.06654 | -80.19867 | 9398 ft | 291 kts | 351° |
| 2026-05-03 20:27 | 26.08691 | -80.20054 | 10238 ft | 296 kts | 351° |
| 2026-05-03 20:28 | 26.10816 | -80.20262 | 10676 ft | 318 kts | 350° |
| 2026-05-03 20:28 | 26.13047 | -80.20491 | 10873 ft | 346 kts | 351° |
| 2026-05-03 20:28 | 26.15584 | -80.20753 | 11214 ft | 370 kts | 351° |
| 2026-05-03 20:28 | 26.18195 | -80.21020 | 11961 ft | 381 kts | 351° |
| 2026-05-03 20:29 | 26.20867 | -80.21287 | 12908 ft | 388 kts | 351° |
| 2026-05-03 20:29 | 26.23585 | -80.21532 | 13872 ft | 394 kts | 351° |
| 2026-05-03 20:29 | 26.26335 | -80.21772 | 14726 ft | 399 kts | 351° |
| 2026-05-03 20:29 | 26.29122 | -80.22015 | 15562 ft | 405 kts | 351° |
| 2026-05-03 20:30 | 26.31953 | -80.22265 | 15995 ft | 410 kts | 351° |
| 2026-05-03 20:30 | 26.34805 | -80.22519 | 15985 ft | 411 kts | 351° |
| 2026-05-03 20:30 | 26.37668 | -80.22775 | 15989 ft | 411 kts | 350° |
| 2026-05-03 20:30 | 26.40476 | -80.23047 | 15993 ft | 410 kts | 350° |
| 2026-05-03 20:31 | 26.43333 | -80.23343 | 16001 ft | 410 kts | 349° |
| 2026-05-03 20:31 | 26.46174 | -80.23643 | 16005 ft | 409 kts | 349° |
| 2026-05-03 20:31 | 26.48981 | -80.23937 | 15990 ft | 409 kts | 349° |
| 2026-05-03 20:31 | 26.51831 | -80.24232 | 16147 ft | 412 kts | 349° |
| 2026-05-03 20:32 | 26.54711 | -80.24529 | 16998 ft | 417 kts | 349° |
| 2026-05-03 20:32 | 26.57615 | -80.24857 | 17927 ft | 419 kts | 347° |
| 2026-05-03 20:32 | 26.60514 | -80.25326 | 18743 ft | 423 kts | 345° |
| 2026-05-03 20:32 | 26.63453 | -80.25860 | 19448 ft | 429 kts | 345° |
| 2026-05-03 20:33 | 26.66403 | -80.26381 | 20143 ft | 435 kts | 345° |
| 2026-05-03 20:33 | 26.69415 | -80.26891 | 20855 ft | 441 kts | 345° |
| 2026-05-03 20:33 | 26.72426 | -80.27584 | 21539 ft | 439 kts | 336° |
| 2026-05-03 20:33 | 26.75274 | -80.28737 | 22202 ft | 440 kts | 331° |
| 2026-05-03 20:34 | 26.78126 | -80.30036 | 22914 ft | 443 kts | 330° |
| 2026-05-03 20:34 | 26.80981 | -80.31333 | 23619 ft | 448 kts | 331° |
| 2026-05-03 20:34 | 26.83918 | -80.32621 | 24183 ft | 454 kts | 332° |
| 2026-05-03 20:34 | 26.86902 | -80.33888 | 24751 ft | 459 kts | 332° |
| 2026-05-03 20:35 | 26.89869 | -80.35128 | 25335 ft | 463 kts | 332° |
| 2026-05-03 20:35 | 26.92892 | -80.36389 | 25918 ft | 467 kts | 332° |
| 2026-05-03 20:35 | 26.95960 | -80.37660 | 26498 ft | 471 kts | 332° |
| 2026-05-03 20:35 | 26.99062 | -80.38911 | 27058 ft | 475 kts | 332° |
| 2026-05-03 20:36 | 27.02197 | -80.40164 | 27581 ft | 479 kts | 332° |
| 2026-05-03 20:36 | 27.05326 | -80.41417 | 28097 ft | 483 kts | 332° |
| 2026-05-03 20:36 | 27.08513 | -80.42702 | 28614 ft | 488 kts | 332° |
| 2026-05-03 20:36 | 27.11711 | -80.44033 | 29107 ft | 490 kts | 331° |
| 2026-05-03 20:37 | 27.14905 | -80.45437 | 29594 ft | 492 kts | 330° |
| 2026-05-03 20:37 | 27.18090 | -80.46867 | 30050 ft | 496 kts | 330° |
| 2026-05-03 20:37 | 27.21279 | -80.48300 | 30410 ft | 499 kts | 330° |
| 2026-05-03 20:37 | 27.24511 | -80.49742 | 30879 ft | 498 kts | 330° |
| 2026-05-03 20:38 | 27.27723 | -80.51163 | 31504 ft | 494 kts | 329° |
| 2026-05-03 20:38 | 27.30921 | -80.52574 | 32173 ft | 489 kts | 329° |
| 2026-05-03 20:38 | 27.34079 | -80.53969 | 32801 ft | 486 kts | 328° |
| 2026-05-03 20:38 | 27.37224 | -80.55361 | 33386 ft | 483 kts | 328° |
| 2026-05-03 20:39 | 27.40328 | -80.56665 | 33935 ft | 483 kts | 329° |
| 2026-05-03 20:39 | 27.43508 | -80.57928 | 34437 ft | 481 kts | 329° |
| 2026-05-03 20:39 | 27.46695 | -80.59166 | 34857 ft | 481 kts | 329° |
| 2026-05-03 20:39 | 27.49865 | -80.60395 | 35209 ft | 481 kts | 329° |
| 2026-05-03 20:40 | 27.53014 | -80.61624 | 35548 ft | 481 kts | 329° |
| 2026-05-03 20:40 | 27.56178 | -80.62869 | 35928 ft | 480 kts | 329° |
| 2026-05-03 20:40 | 27.59299 | -80.64104 | 36291 ft | 480 kts | 329° |
| 2026-05-03 20:40 | 27.62435 | -80.65351 | 36642 ft | 479 kts | 328° |
| 2026-05-03 20:41 | 27.65593 | -80.66611 | 36962 ft | 480 kts | 328° |
| 2026-05-03 20:41 | 27.71903 | -80.69136 | 37069 ft | 481 kts | 328° |
| 2026-05-03 20:42 | 27.78194 | -80.71650 | 37079 ft | 480 kts | 328° |
| 2026-05-03 20:42 | 27.84478 | -80.74163 | 37084 ft | 479 kts | 328° |
| 2026-05-03 20:43 | 27.90787 | -80.76692 | 37077 ft | 480 kts | 328° |
| 2026-05-03 20:43 | 27.96971 | -80.79173 | 37084 ft | 480 kts | 328° |
| 2026-05-03 20:44 | 28.03281 | -80.81710 | 37094 ft | 483 kts | 328° |
| 2026-05-03 20:44 | 28.09664 | -80.84281 | 37100 ft | 486 kts | 328° |
| 2026-05-03 20:45 | 28.16023 | -80.86836 | 37088 ft | 485 kts | 328° |
| 2026-05-03 20:45 | 28.22351 | -80.89384 | 37091 ft | 484 kts | 328° |
| 2026-05-03 20:46 | 28.28711 | -80.91952 | 37095 ft | 485 kts | 328° |
| 2026-05-03 20:46 | 28.35079 | -80.94526 | 37101 ft | 485 kts | 328° |
| 2026-05-03 20:47 | 28.41448 | -80.97104 | 37106 ft | 485 kts | 328° |
| 2026-05-03 20:47 | 28.47778 | -80.99669 | 37098 ft | 485 kts | 328° |
| 2026-05-03 20:48 | 28.54140 | -81.02250 | 37107 ft | 486 kts | 328° |
| 2026-05-03 20:48 | 28.60521 | -81.04842 | 37109 ft | 486 kts | 328° |
| 2026-05-03 20:49 | 28.66883 | -81.07430 | 37108 ft | 486 kts | 328° |
| 2026-05-03 20:49 | 28.73279 | -81.10036 | 37110 ft | 487 kts | 328° |
| 2026-05-03 20:50 | 28.79650 | -81.12634 | 37095 ft | 487 kts | 328° |
| 2026-05-03 20:50 | 28.86017 | -81.15234 | 37100 ft | 488 kts | 327° |
| 2026-05-03 20:51 | 28.92409 | -81.17847 | 37105 ft | 488 kts | 327° |
| 2026-05-03 20:51 | 28.98814 | -81.20469 | 37119 ft | 488 kts | 327° |
| 2026-05-03 20:52 | 29.05201 | -81.23088 | 37117 ft | 488 kts | 327° |
| 2026-05-03 20:52 | 29.11570 | -81.25703 | 37117 ft | 488 kts | 327° |
| 2026-05-03 20:53 | 29.17981 | -81.28338 | 37119 ft | 488 kts | 327° |
| 2026-05-03 20:53 | 29.24344 | -81.30957 | 37123 ft | 488 kts | 327° |
| 2026-05-03 20:54 | 29.31062 | -81.32895 | 37133 ft | 516 kts | 343° |
| 2026-05-03 20:54 | 29.41953 | -81.33316 | 37139 ft | 525 kts | 347° |
| 2026-05-03 20:55 | 29.49221 | -81.33572 | 37130 ft | 522 kts | 346° |
| 2026-05-03 20:55 | 29.56458 | -81.33973 | 37141 ft | 521 kts | 345° |
| 2026-05-03 20:56 | 29.63720 | -81.34423 | 37142 ft | 521 kts | 345° |
| 2026-05-03 20:56 | 29.70928 | -81.34863 | 37157 ft | 521 kts | 345° |
| 2026-05-03 20:57 | 29.78146 | -81.35293 | 37158 ft | 521 kts | 345° |
| 2026-05-03 20:57 | 29.85417 | -81.35724 | 37156 ft | 521 kts | 345° |
| 2026-05-03 20:58 | 29.92623 | -81.36153 | 37153 ft | 521 kts | 345° |
| 2026-05-03 20:58 | 29.99894 | -81.36586 | 37153 ft | 521 kts | 345° |
| 2026-05-03 20:59 | 30.07151 | -81.37020 | 37152 ft | 522 kts | 345° |
| 2026-05-03 20:59 | 30.14382 | -81.37453 | 37153 ft | 522 kts | 345° |
| 2026-05-03 21:00 | 30.19210 | -81.37737 | 37151 ft | 522 kts | 345° |
| 2026-05-03 21:00 | 30.28912 | -81.38303 | 37137 ft | 523 kts | 345° |
| 2026-05-03 21:01 | 30.36153 | -81.38727 | 37139 ft | 523 kts | 345° |
| 2026-05-03 21:01 | 30.43457 | -81.39156 | 37136 ft | 523 kts | 345° |
| 2026-05-03 21:02 | 30.50691 | -81.39570 | 37136 ft | 523 kts | 346° |
| 2026-05-03 21:02 | 30.57960 | -81.39957 | 37150 ft | 523 kts | 346° |
| 2026-05-03 21:03 | 30.65242 | -81.40343 | 37150 ft | 522 kts | 346° |
| 2026-05-03 21:03 | 30.72482 | -81.40733 | 37148 ft | 522 kts | 345° |
| 2026-05-03 21:04 | 30.79761 | -81.41127 | 37147 ft | 522 kts | 345° |
| 2026-05-03 21:04 | 30.86970 | -81.41518 | 37144 ft | 521 kts | 345° |
| 2026-05-03 21:05 | 30.94250 | -81.41913 | 37145 ft | 521 kts | 345° |
| 2026-05-03 21:05 | 31.01515 | -81.42309 | 37139 ft | 521 kts | 345° |
| 2026-05-03 21:06 | 31.08732 | -81.42701 | 37124 ft | 521 kts | 345° |
| 2026-05-03 21:06 | 31.15974 | -81.43096 | 37123 ft | 520 kts | 345° |
| 2026-05-03 21:07 | 31.23242 | -81.43059 | 37141 ft | 538 kts | 357° |
| 2026-05-03 21:07 | 31.26976 | -81.42246 | 37156 ft | 550 kts | 5° |
| 2026-05-03 21:07 | 31.30673 | -81.40879 | 37140 ft | 563 kts | 14° |
| 2026-05-03 21:08 | 31.37797 | -81.37000 | 37149 ft | 569 kts | 18° |
| 2026-05-03 21:08 | 31.44920 | -81.32925 | 37143 ft | 568 kts | 18° |
| 2026-05-03 21:09 | 31.52072 | -81.28981 | 37141 ft | 566 kts | 17° |
| 2026-05-03 21:09 | 31.59196 | -81.25118 | 37139 ft | 566 kts | 17° |
| 2026-05-03 21:10 | 31.66324 | -81.21230 | 37135 ft | 566 kts | 17° |
| 2026-05-03 21:10 | 31.72312 | -81.17953 | 37127 ft | 566 kts | 17° |
| 2026-05-03 21:11 | 31.79413 | -81.14063 | 37119 ft | 565 kts | 17° |
| 2026-05-03 21:11 | 31.86513 | -81.10168 | 37111 ft | 565 kts | 17° |
| 2026-05-03 21:12 | 31.93655 | -81.06241 | 37092 ft | 565 kts | 17° |
| 2026-05-03 21:12 | 32.00755 | -81.02330 | 37095 ft | 564 kts | 17° |
| 2026-05-03 21:13 | 32.07870 | -80.98367 | 37098 ft | 564 kts | 17° |
| 2026-05-03 21:13 | 32.14968 | -80.94382 | 37126 ft | 563 kts | 17° |
| 2026-05-03 21:14 | 32.22001 | -80.90431 | 37141 ft | 563 kts | 17° |
| 2026-05-03 21:14 | 32.29102 | -80.86441 | 37128 ft | 562 kts | 17° |
| 2026-05-03 21:15 | 32.36136 | -80.82483 | 37143 ft | 562 kts | 17° |
| 2026-05-03 21:15 | 32.43175 | -80.78516 | 37138 ft | 561 kts | 17° |
| 2026-05-03 21:16 | 32.50210 | -80.74542 | 37140 ft | 560 kts | 17° |
| 2026-05-03 21:16 | 32.57250 | -80.70558 | 37141 ft | 560 kts | 17° |
| 2026-05-03 21:17 | 32.64293 | -80.66566 | 37137 ft | 560 kts | 17° |
| 2026-05-03 21:17 | 32.71044 | -80.61776 | 37131 ft | 573 kts | 29° |
| 2026-05-03 21:18 | 32.77166 | -80.55574 | 37129 ft | 583 kts | 40° |
| 2026-05-03 21:18 | 32.82850 | -80.48544 | 37141 ft | 596 kts | 42° |
| 2026-05-03 21:19 | 32.88565 | -80.41349 | 37143 ft | 603 kts | 41° |
| 2026-05-03 21:19 | 32.94388 | -80.34106 | 37106 ft | 602 kts | 41° |
| 2026-05-03 21:20 | 33.00165 | -80.26987 | 37090 ft | 600 kts | 41° |
| 2026-05-03 21:20 | 33.05999 | -80.19801 | 37098 ft | 600 kts | 41° |
| 2026-05-03 21:21 | 33.11775 | -80.12662 | 37113 ft | 601 kts | 41° |
| 2026-05-03 21:21 | 33.17557 | -80.05490 | 37112 ft | 601 kts | 41° |
| 2026-05-03 21:22 | 33.23357 | -79.98279 | 37115 ft | 601 kts | 41° |
| 2026-05-03 21:22 | 33.29139 | -79.91078 | 37117 ft | 601 kts | 41° |
| 2026-05-03 21:23 | 33.34945 | -79.83832 | 37120 ft | 601 kts | 41° |
| 2026-05-03 21:23 | 33.40702 | -79.76633 | 37133 ft | 601 kts | 41° |
| 2026-05-03 21:24 | 33.46462 | -79.69417 | 37121 ft | 601 kts | 41° |
| 2026-05-03 21:24 | 33.52247 | -79.62153 | 37125 ft | 601 kts | 41° |
| 2026-05-03 21:25 | 33.57999 | -79.54915 | 37129 ft | 601 kts | 41° |
| 2026-05-03 21:25 | 33.63788 | -79.47617 | 37129 ft | 600 kts | 41° |
| 2026-05-03 21:26 | 33.69514 | -79.40382 | 37123 ft | 600 kts | 41° |
| 2026-05-03 21:26 | 33.75275 | -79.33088 | 37124 ft | 600 kts | 41° |
| 2026-05-03 21:27 | 33.80993 | -79.25834 | 37114 ft | 600 kts | 41° |
| 2026-05-03 21:27 | 33.86743 | -79.18523 | 37112 ft | 599 kts | 41° |
| 2026-05-03 21:28 | 33.92460 | -79.11240 | 37110 ft | 599 kts | 41° |
| 2026-05-03 21:28 | 33.98188 | -79.03927 | 37119 ft | 599 kts | 41° |
| 2026-05-03 21:29 | 34.03895 | -78.96626 | 37118 ft | 599 kts | 41° |
| 2026-05-03 21:29 | 34.09598 | -78.89313 | 37119 ft | 599 kts | 41° |
| 2026-05-03 21:30 | 34.15311 | -78.81973 | 37119 ft | 598 kts | 41° |
| 2026-05-03 21:30 | 34.20965 | -78.74691 | 37118 ft | 597 kts | 41° |
| 2026-05-03 21:31 | 34.26655 | -78.67350 | 37123 ft | 596 kts | 41° |
| 2026-05-03 21:31 | 34.32338 | -78.60108 | 37118 ft | 593 kts | 38° |
| 2026-05-03 21:32 | 34.38584 | -78.53704 | 37125 ft | 585 kts | 30° |
| 2026-05-03 21:32 | 34.45035 | -78.47756 | 37103 ft | 584 kts | 30° |
| 2026-05-03 21:33 | 34.51498 | -78.41743 | 37099 ft | 584 kts | 31° |
| 2026-05-03 21:33 | 34.57877 | -78.35697 | 37104 ft | 584 kts | 31° |
| 2026-05-03 21:34 | 34.64270 | -78.29600 | 37105 ft | 584 kts | 31° |
| 2026-05-03 21:34 | 34.70664 | -78.23501 | 37101 ft | 583 kts | 31° |
| 2026-05-03 21:35 | 34.77011 | -78.17443 | 37102 ft | 582 kts | 31° |
| 2026-05-03 21:35 | 34.83396 | -78.11335 | 37098 ft | 582 kts | 31° |
| 2026-05-03 21:36 | 34.89730 | -78.05275 | 37101 ft | 581 kts | 31° |
| 2026-05-03 21:36 | 34.96103 | -77.99190 | 37103 ft | 580 kts | 31° |
| 2026-05-03 21:37 | 35.02421 | -77.93147 | 37104 ft | 579 kts | 31° |
| 2026-05-03 21:37 | 35.08770 | -77.87055 | 37103 ft | 579 kts | 31° |
| 2026-05-03 21:38 | 35.15109 | -77.80959 | 37111 ft | 578 kts | 31° |
| 2026-05-03 21:38 | 35.21416 | -77.74880 | 37101 ft | 578 kts | 31° |
| 2026-05-03 21:39 | 35.27712 | -77.68801 | 37096 ft | 577 kts | 31° |
| 2026-05-03 21:39 | 35.34005 | -77.62713 | 37096 ft | 577 kts | 31° |
| 2026-05-03 21:40 | 35.40337 | -77.56575 | 37099 ft | 577 kts | 31° |
| 2026-05-03 21:40 | 35.46613 | -77.50477 | 37106 ft | 576 kts | 31° |
| 2026-05-03 21:41 | 35.52862 | -77.44392 | 37095 ft | 575 kts | 31° |
| 2026-05-03 21:41 | 35.59120 | -77.38287 | 37097 ft | 574 kts | 31° |
| 2026-05-03 21:42 | 35.65354 | -77.32194 | 37096 ft | 573 kts | 31° |
| 2026-05-03 21:42 | 35.71605 | -77.26071 | 37087 ft | 573 kts | 31° |
| 2026-05-03 21:43 | 35.77800 | -77.19990 | 37092 ft | 573 kts | 31° |
| 2026-05-03 21:43 | 35.84048 | -77.13843 | 37093 ft | 573 kts | 31° |
| 2026-05-03 21:44 | 35.90289 | -77.07700 | 37100 ft | 571 kts | 30° |
| 2026-05-03 21:44 | 35.96779 | -77.02314 | 37108 ft | 561 kts | 22° |
| 2026-05-03 21:45 | 36.03508 | -76.97494 | 37109 ft | 559 kts | 21° |
| 2026-05-03 21:45 | 36.10257 | -76.92684 | 37104 ft | 559 kts | 21° |
| 2026-05-03 21:46 | 36.16980 | -76.87804 | 37100 ft | 558 kts | 22° |
| 2026-05-03 21:46 | 36.23629 | -76.82925 | 37098 ft | 558 kts | 22° |
| 2026-05-03 21:47 | 36.30309 | -76.78010 | 37098 ft | 558 kts | 22° |
| 2026-05-03 21:47 | 36.37001 | -76.73082 | 37095 ft | 557 kts | 22° |
| 2026-05-03 21:48 | 36.43675 | -76.68163 | 37093 ft | 556 kts | 22° |
| 2026-05-03 21:48 | 36.50295 | -76.63273 | 37099 ft | 556 kts | 22° |
| 2026-05-03 21:49 | 36.56905 | -76.58380 | 37096 ft | 555 kts | 22° |
| 2026-05-03 21:49 | 36.63556 | -76.53447 | 37092 ft | 554 kts | 22° |
| 2026-05-03 21:50 | 36.70167 | -76.48535 | 37093 ft | 554 kts | 22° |
| 2026-05-03 21:50 | 36.76805 | -76.43591 | 37086 ft | 554 kts | 22° |
| 2026-05-03 21:51 | 36.83396 | -76.38673 | 37093 ft | 555 kts | 22° |
| 2026-05-03 21:51 | 36.90011 | -76.33726 | 37083 ft | 554 kts | 22° |
| 2026-05-03 21:52 | 36.96642 | -76.28757 | 37076 ft | 554 kts | 22° |
| 2026-05-03 21:52 | 37.03220 | -76.23818 | 37075 ft | 554 kts | 22° |
| 2026-05-03 21:53 | 37.09820 | -76.18852 | 37080 ft | 554 kts | 22° |
| 2026-05-03 21:53 | 37.16452 | -76.13852 | 37086 ft | 553 kts | 22° |
| 2026-05-03 21:54 | 37.23027 | -76.08884 | 37092 ft | 553 kts | 22° |
| 2026-05-03 21:54 | 37.29595 | -76.03912 | 37089 ft | 553 kts | 22° |
| 2026-05-03 21:55 | 37.36183 | -75.98914 | 37096 ft | 553 kts | 22° |
| 2026-05-03 21:55 | 37.42769 | -75.93907 | 37095 ft | 553 kts | 22° |
| 2026-05-03 21:56 | 37.49368 | -75.88879 | 37097 ft | 552 kts | 22° |
| 2026-05-03 21:56 | 37.55905 | -75.83901 | 37096 ft | 552 kts | 22° |
| 2026-05-03 21:57 | 37.62491 | -75.78960 | 37090 ft | 551 kts | 22° |
| 2026-05-03 21:57 | 37.69101 | -75.74005 | 37080 ft | 551 kts | 22° |
| 2026-05-03 21:58 | 37.75706 | -75.69025 | 37090 ft | 551 kts | 22° |
| 2026-05-03 21:58 | 37.82238 | -75.64087 | 37067 ft | 551 kts | 22° |
| 2026-05-03 21:59 | 37.88718 | -75.58830 | 37055 ft | 556 kts | 26° |
| 2026-05-03 21:59 | 37.94017 | -75.54166 | 37067 ft | 556 kts | 27° |
| 2026-05-03 22:00 | 38.01421 | -75.47665 | 37066 ft | 555 kts | 26° |
| 2026-05-03 22:00 | 38.06732 | -75.43073 | 37066 ft | 551 kts | 25° |
| 2026-05-03 22:01 | 38.13193 | -75.37820 | 37070 ft | 551 kts | 24° |
| 2026-05-03 22:01 | 38.19667 | -75.32592 | 37054 ft | 553 kts | 23° |
| 2026-05-03 22:02 | 38.26528 | -75.28473 | 37057 ft | 536 kts | 10° |
| 2026-05-03 22:02 | 38.33594 | -75.26158 | 37052 ft | 520 kts | 360° |
| 2026-05-03 22:03 | 38.40767 | -75.24824 | 37059 ft | 520 kts | 359° |
| 2026-05-03 22:03 | 38.47891 | -75.23400 | 37053 ft | 522 kts | 0° |
| 2026-05-03 22:04 | 38.55081 | -75.21859 | 37047 ft | 523 kts | 1° |
| 2026-05-03 22:04 | 38.62191 | -75.20332 | 37038 ft | 523 kts | 1° |
| 2026-05-03 22:05 | 38.69353 | -75.18018 | 37047 ft | 540 kts | 14° |
| 2026-05-03 22:05 | 38.76029 | -75.13352 | 37033 ft | 557 kts | 30° |
| 2026-05-03 22:06 | 38.82191 | -75.07214 | 37045 ft | 560 kts | 32° |
| 2026-05-03 22:06 | 38.88280 | -75.01024 | 37035 ft | 559 kts | 32° |
| 2026-05-03 22:07 | 38.94451 | -74.94917 | 37037 ft | 558 kts | 31° |
| 2026-05-03 22:07 | 38.97540 | -74.91889 | 36925 ft | 557 kts | 31° |
| 2026-05-03 22:07 | 39.00574 | -74.88910 | 36339 ft | 553 kts | 31° |
| 2026-05-03 22:08 | 39.03616 | -74.85911 | 35737 ft | 546 kts | 31° |
| 2026-05-03 22:08 | 39.06608 | -74.82956 | 35159 ft | 540 kts | 31° |
| 2026-05-03 22:08 | 39.09583 | -74.80014 | 34579 ft | 533 kts | 31° |
| 2026-05-03 22:08 | 39.12492 | -74.77044 | 33999 ft | 530 kts | 32° |
| 2026-05-03 22:09 | 39.15271 | -74.74051 | 33352 ft | 525 kts | 33° |
| 2026-05-03 22:09 | 39.18039 | -74.71003 | 32699 ft | 521 kts | 34° |
| 2026-05-03 22:09 | 39.20781 | -74.67973 | 32042 ft | 516 kts | 34° |
| 2026-05-03 22:10 | 39.26197 | -74.62047 | 30810 ft | 507 kts | 33° |
| 2026-05-03 22:10 | 39.28894 | -74.59120 | 30211 ft | 503 kts | 33° |
| 2026-05-03 22:10 | 39.31571 | -74.56218 | 29514 ft | 499 kts | 33° |
| 2026-05-03 22:10 | 39.34225 | -74.53338 | 28815 ft | 495 kts | 34° |
| 2026-05-03 22:11 | 39.36822 | -74.50514 | 28140 ft | 491 kts | 34° |
| 2026-05-03 22:11 | 39.39434 | -74.47671 | 27474 ft | 487 kts | 34° |
| 2026-05-03 22:11 | 39.42013 | -74.44858 | 26819 ft | 482 kts | 34° |
| 2026-05-03 22:11 | 39.44579 | -74.42057 | 26178 ft | 478 kts | 34° |
| 2026-05-03 22:12 | 39.47085 | -74.39319 | 25562 ft | 474 kts | 34° |
| 2026-05-03 22:12 | 39.49598 | -74.36572 | 24949 ft | 470 kts | 34° |
| 2026-05-03 22:12 | 39.52087 | -74.33849 | 24356 ft | 466 kts | 34° |
| 2026-05-03 22:12 | 39.54566 | -74.31136 | 23762 ft | 462 kts | 34° |
| 2026-05-03 22:13 | 39.56993 | -74.28475 | 23107 ft | 458 kts | 34° |
| 2026-05-03 22:13 | 39.59420 | -74.25812 | 22421 ft | 455 kts | 34° |
| 2026-05-03 22:13 | 39.61825 | -74.23170 | 21764 ft | 451 kts | 34° |
| 2026-05-03 22:13 | 39.64206 | -74.20553 | 21102 ft | 447 kts | 34° |
| 2026-05-03 22:14 | 39.66557 | -74.17967 | 20410 ft | 445 kts | 34° |
| 2026-05-03 22:14 | 39.68939 | -74.15345 | 19707 ft | 443 kts | 35° |
| 2026-05-03 22:14 | 39.71271 | -74.12774 | 19030 ft | 441 kts | 35° |
| 2026-05-03 22:14 | 39.73621 | -74.10181 | 18367 ft | 439 kts | 35° |
| 2026-05-03 22:15 | 39.75921 | -74.07639 | 17705 ft | 435 kts | 35° |
| 2026-05-03 22:15 | 39.78186 | -74.05134 | 17040 ft | 431 kts | 35° |
| 2026-05-03 22:15 | 39.80475 | -74.02601 | 16395 ft | 427 kts | 36° |
| 2026-05-03 22:15 | 39.82732 | -74.00102 | 15761 ft | 423 kts | 36° |
| 2026-05-03 22:16 | 39.85006 | -73.97739 | 15110 ft | 408 kts | 29° |
| 2026-05-03 22:16 | 39.87328 | -73.95935 | 14386 ft | 378 kts | 22° |
| 2026-05-03 22:16 | 39.89594 | -73.94435 | 13671 ft | 355 kts | 21° |
| 2026-05-03 22:16 | 39.91760 | -73.93031 | 12877 ft | 337 kts | 21° |
| 2026-05-03 22:17 | 39.93812 | -73.91663 | 12107 ft | 323 kts | 22° |
| 2026-05-03 22:17 | 39.95760 | -73.90323 | 11465 ft | 308 kts | 23° |
| 2026-05-03 22:17 | 39.97591 | -73.89035 | 11265 ft | 298 kts | 23° |
| 2026-05-03 22:17 | 39.99415 | -73.87749 | 11205 ft | 300 kts | 23° |
| 2026-05-03 22:18 | 40.01251 | -73.86447 | 11145 ft | 298 kts | 23° |
| 2026-05-03 22:18 | 40.03105 | -73.85270 | 11027 ft | 294 kts | 18° |
| 2026-05-03 22:18 | 40.05015 | -73.84297 | 10631 ft | 295 kts | 15° |
| 2026-05-03 22:18 | 40.06934 | -73.83379 | 10393 ft | 290 kts | 15° |
| 2026-05-03 22:19 | 40.08831 | -73.82473 | 10059 ft | 290 kts | 15° |
| 2026-05-03 22:19 | 40.10701 | -73.81572 | 9679 ft | 290 kts | 15° |
| 2026-05-03 22:19 | 40.12583 | -73.80654 | 9286 ft | 290 kts | 16° |
| 2026-05-03 22:19 | 40.14483 | -73.79721 | 8875 ft | 290 kts | 16° |
| 2026-05-03 22:20 | 40.16384 | -73.78781 | 8399 ft | 293 kts | 16° |
| 2026-05-03 22:20 | 40.18295 | -73.77831 | 7986 ft | 293 kts | 16° |
| 2026-05-03 22:20 | 40.20186 | -73.76887 | 7581 ft | 293 kts | 16° |
| 2026-05-03 22:20 | 40.22096 | -73.75933 | 7180 ft | 293 kts | 17° |
| 2026-05-03 22:21 | 40.23987 | -73.74986 | 6780 ft | 292 kts | 16° |
| 2026-05-03 22:21 | 40.25850 | -73.74049 | 6377 ft | 282 kts | 16° |
| 2026-05-03 22:21 | 40.27675 | -73.73132 | 6075 ft | 279 kts | 17° |
| 2026-05-03 22:21 | 40.29479 | -73.72226 | 5738 ft | 276 kts | 17° |
| 2026-05-03 22:22 | 40.31266 | -73.71329 | 5417 ft | 274 kts | 17° |
| 2026-05-03 22:22 | 40.33039 | -73.70438 | 5104 ft | 271 kts | 17° |
| 2026-05-03 22:22 | 40.34708 | -73.69599 | 4798 ft | 270 kts | 17° |
| 2026-05-03 22:22 | 40.36500 | -73.68697 | 4389 ft | 264 kts | 17° |
| 2026-05-03 22:23 | 40.38201 | -73.67838 | 3956 ft | 256 kts | 17° |
| 2026-05-03 22:23 | 40.39833 | -73.67016 | 3552 ft | 254 kts | 17° |
| 2026-05-03 22:23 | 40.41485 | -73.66184 | 3254 ft | 253 kts | 17° |
| 2026-05-03 22:23 | 40.43123 | -73.65358 | 3087 ft | 246 kts | 17° |
| 2026-05-03 22:24 | 40.44695 | -73.64563 | 3015 ft | 236 kts | 17° |
| 2026-05-03 22:24 | 40.46194 | -73.63806 | 3001 ft | 233 kts | 16° |
| 2026-05-03 22:24 | 40.47715 | -73.63039 | 3006 ft | 233 kts | 17° |
| 2026-05-03 22:24 | 40.49202 | -73.62287 | 2988 ft | 224 kts | 17° |
| 2026-05-03 22:25 | 40.50660 | -73.61551 | 3004 ft | 225 kts | 17° |
| 2026-05-03 22:25 | 40.52105 | -73.60821 | 3027 ft | 224 kts | 17° |
| 2026-05-03 22:25 | 40.53555 | -73.60086 | 3006 ft | 217 kts | 17° |
| 2026-05-03 22:25 | 40.54927 | -73.59482 | 2985 ft | 203 kts | 2° |
| 2026-05-03 22:26 | 40.56245 | -73.59836 | 2985 ft | 194 kts | 327° |
| 2026-05-03 22:26 | 40.57246 | -73.61029 | 2735 ft | 195 kts | 311° |
| 2026-05-03 22:26 | 40.58086 | -73.62409 | 2466 ft | 193 kts | 307° |
| 2026-05-03 22:26 | 40.58854 | -73.63809 | 2251 ft | 182 kts | 303° |
| 2026-05-03 22:27 | 40.59500 | -73.65178 | 1969 ft | 168 kts | 301° |
| 2026-05-03 22:27 | 40.60059 | -73.66415 | 1755 ft | 146 kts | 301° |
| 2026-05-03 22:27 | 40.60552 | -73.67500 | 1541 ft | 136 kts | 301° |
| 2026-05-03 22:27 | 40.61026 | -73.68545 | 1369 ft | 130 kts | 301° |
| 2026-05-03 22:28 | 40.61491 | -73.69569 | 1189 ft | 131 kts | 301° |
| 2026-05-03 22:28 | 40.61956 | -73.70594 | 1027 ft | 131 kts | 301° |
| 2026-05-03 22:28 | 40.62428 | -73.71639 | 827 ft | 134 kts | 302° |
| 2026-05-03 22:28 | 40.62897 | -73.72696 | 630 ft | 134 kts | 301° |
| 2026-05-03 22:29 | 40.63339 | -73.73754 | 475 ft | 127 kts | 304° |
| 2026-05-03 22:29 | 40.63813 | -73.74729 | 295 ft | 127 kts | 304° |
| 2026-05-03 22:29 | 40.64264 | -73.75712 | 121 ft | 123 kts | 304° |
| 2026-05-03 22:29 | 40.64702 | -73.76663 | 33 ft | 119 kts | 305° |
| 2026-05-03 22:30 | 40.65082 | -73.77489 | 31 ft | 91 kts | 301° |
| 2026-05-03 22:30 | 40.65342 | -73.78063 | 30 ft | 48 kts | 301° |
| 2026-05-03 22:30 | 40.65422 | -73.78299 | 28 ft | 18 kts | 263° |
| 2026-05-03 22:30 | 40.65387 | -73.78402 | 28 ft | 6 kts | 241° |
| 2026-05-03 22:31 | 40.65371 | -73.78440 | 29 ft | 0 kts | 241° |
| 2026-05-03 22:31 | 40.65368 | -73.78445 | 29 ft | 1 kts | 241° |
| 2026-05-03 22:31 | 40.65348 | -73.78493 | 30 ft | 20 kts | 241° |
| 2026-05-03 22:31 | 40.65285 | -73.78640 | 28 ft | 14 kts | 240° |
| 2026-05-03 22:32 | 40.65238 | -73.78755 | 30 ft | 14 kts | 248° |
| 2026-05-03 22:32 | 40.65220 | -73.78885 | 26 ft | 15 kts | 273° |
| 2026-05-03 22:32 | 40.65242 | -73.79017 | 29 ft | 15 kts | 287° |
| 2026-05-03 22:32 | 40.65274 | -73.79144 | 29 ft | 15 kts | 288° |
| 2026-05-03 22:33 | 40.65288 | -73.79276 | 28 ft | 15 kts | 267° |
| 2026-05-03 22:33 | 40.65269 | -73.79358 | 27 ft | 4 kts | 228° |
| 2026-05-03 22:33 | 40.65236 | -73.79357 | 27 ft | 6 kts | 159° |
| 2026-05-03 22:33 | 40.65193 | -73.79329 | 27 ft | 8 kts | 150° |
| 2026-05-03 22:34 | 40.65154 | -73.79286 | 26 ft | 7 kts | 120° |
| 2026-05-03 22:34 | 40.65164 | -73.79229 | 25 ft | 6 kts | 58° |
| 2026-05-03 22:34 | 40.65165 | -73.79227 | 25 ft | 0 kts | 58° |
| 2026-05-03 22:34 | 40.65169 | -73.79206 | 26 ft | 8 kts | 85° |
| 2026-05-03 22:35 | 40.65139 | -73.79183 | 25 ft | 6 kts | 173° |
| 2026-05-03 22:35 | 40.65127 | -73.79180 | 25 ft | 0 kts | 172° |